Time;durP1;ratioP1;P1;durP2;ratioP2;P2;SDS_P1;SDS_P2;PMS_P1;PMS_P2;Temp;Humidity;BMP_temperature;BMP_pressure;BME280_temperature;BME280_humidity;BME280_pressure;Samples;Min_cycle;Max_cycle;Signal;HPM_P1;HPM_P2
2024/04/09 00:01:51;;;;;;;0.60;0.60;;;;;;;17.10;57.68;99371.56;5491132;26;20046;-67
2024/04/09 00:04:21;;;;;;;1.65;1.33;;;;;;;16.94;58.17;99362.59;5488896;26;20013;-66
2024/04/09 00:06:52;;;;;;;0.73;0.73;;;;;;;16.92;58.24;99364.41;5489043;26;20014;-66
2024/04/09 00:09:23;;;;;;;0.50;0.50;;;;;;;16.91;58.34;99362.72;5490631;26;19998;-66
2024/04/09 00:11:53;;;;;;;0.70;0.70;;;;;;;16.91;58.26;99367.03;5490691;26;20073;-66
2024/04/09 00:14:24;;;;;;;0.73;0.73;;;;;;;16.85;58.50;99357.75;5490815;26;20042;-66
2024/04/09 00:16:53;;;;;;;1.67;1.17;;;;;;;16.75;58.35;99351.19;5490641;26;20074;-66
2024/04/09 00:19:24;;;;;;;0.65;0.65;;;;;;;16.69;58.79;99353.97;5490439;26;19995;-66
2024/04/09 00:21:55;;;;;;;1.48;1.15;;;;;;;16.62;59.30;99349.91;5490841;26;20035;-66
2024/04/09 00:24:26;;;;;;;1.25;1.15;;;;;;;16.59;59.27;99344.81;5490771;26;19998;-66
2024/04/09 00:26:54;;;;;;;0.60;0.60;;;;;;;16.58;59.28;99348.31;5490628;26;19999;-66
2024/04/09 00:29:25;;;;;;;0.60;0.57;;;;;;;16.59;59.40;99357.72;5488298;26;20002;-66
2024/04/09 00:31:53;;;;;;;0.57;0.57;;;;;;;16.57;59.18;99356.91;5490637;26;19998;-66
2024/04/09 00:34:23;;;;;;;5.63;1.73;;;;;;;16.54;59.35;99351.84;5490138;26;20030;-66
2024/04/09 00:36:52;;;;;;;0.50;0.50;;;;;;;16.54;59.71;99357.00;5490414;26;20066;-66
2024/04/09 00:39:27;;;;;;;1.05;0.98;;;;;;;16.41;59.92;99353.09;5490095;26;20472;-66
2024/04/09 00:41:55;;;;;;;1.05;0.95;;;;;;;16.36;60.00;99347.22;5490375;26;20013;-66
2024/04/09 00:44:28;;;;;;;2.78;1.60;;;;;;;16.34;60.00;99354.97;5489978;26;20013;-66
2024/04/09 00:46:56;;;;;;;2.05;1.45;;;;;;;16.37;60.07;99359.19;5490076;26;20010;-67
2024/04/09 00:49:27;;;;;;;0.77;0.77;;;;;;;16.35;60.15;99345.53;5489754;26;20373;-66
2024/04/09 00:51:56;;;;;;;0.63;0.60;;;;;;;16.66;57.77;99351.47;5490114;26;20017;-65
2024/04/09 00:54:30;;;;;;;0.82;0.73;;;;;;;16.89;57.12;99354.22;5489772;26;20074;-66
2024/04/09 00:56:59;;;;;;;0.70;0.60;;;;;;;16.98;56.63;99348.75;5489892;26;20013;-66
2024/04/09 00:59:31;;;;;;;0.88;0.70;;;;;;;16.98;56.64;99348.75;5489642;26;20051;-66
2024/04/09 01:02:00;;;;;;;0.57;0.57;;;;;;;17.04;56.08;99342.53;5490074;26;20002;-66
2024/04/09 01:04:30;;;;;;;0.95;0.95;;;;;;;16.95;56.60;99340.25;5489575;26;20014;-66
2024/04/09 01:06:59;;;;;;;1.95;0.85;;;;;;;16.91;56.80;99367.88;5489926;26;19998;-66
2024/04/09 01:09:32;;;;;;;0.50;0.50;;;;;;;16.84;56.96;99350.94;5518492;26;20002;-66
2024/04/09 01:12:00;;;;;;;1.02;0.82;;;;;;;16.76;57.12;99347.72;5492912;26;20038;-66
2024/04/09 01:14:30;;;;;;;0.55;0.55;;;;;;;16.69;57.71;99335.94;5490084;26;19994;-66
2024/04/09 01:16:58;;;;;;;1.98;1.38;;;;;;;16.58;58.17;99349.13;5491337;26;19994;-66
2024/04/09 01:19:29;;;;;;;0.40;0.40;;;;;;;16.47;58.05;99334.84;5493173;26;20006;-67
2024/04/09 01:21:57;;;;;;;0.75;0.75;;;;;;;16.53;58.52;99345.84;5493494;26;19998;-66
2024/04/09 01:24:32;;;;;;;0.95;0.85;;;;;;;16.50;58.39;99339.94;5493001;26;20070;-66
2024/04/09 01:27:01;;;;;;;0.65;0.65;;;;;;;16.43;58.97;99343.56;5493136;26;20459;-66
2024/04/09 01:29:35;;;;;;;0.85;0.85;;;;;;;16.37;58.99;99338.59;5492589;26;20006;-66
2024/04/09 01:32:06;;;;;;;0.50;0.50;;;;;;;16.45;58.45;99339.22;5492981;26;20049;-66
2024/04/09 01:34:37;;;;;;;0.60;0.60;;;;;;;16.76;56.84;99342.56;5493158;26;20013;-66
2024/04/09 01:37:11;;;;;;;0.70;0.70;;;;;;;17.15;54.96;99336.16;5490960;26;19998;-67
2024/04/09 01:39:45;;;;;;;0.47;0.47;;;;;;;17.66;51.71;99327.59;5493073;26;20076;-67
2024/04/09 01:42:14;;;;;;;0.60;0.60;;;;;;;18.22;49.82;99331.53;5492832;26;19998;-67
2024/04/09 01:44:45;;;;;;;0.77;0.77;;;;;;;18.33;49.35;99318.22;5492592;26;19998;-67
2024/04/09 01:47:14;;;;;;;1.15;1.05;;;;;;;18.53;48.37;99324.31;5492803;26;20002;-66
2024/04/09 01:49:45;;;;;;;0.60;0.60;;;;;;;18.91;47.76;99319.41;5492555;26;19998;-66
2024/04/09 01:52:13;;;;;;;0.85;0.73;;;;;;;19.12;47.59;99334.06;5490948;26;19999;-66
2024/04/09 01:54:48;;;;;;;0.70;0.70;;;;;;;19.24;47.17;99330.97;5492570;26;20020;-66
2024/04/09 01:57:16;;;;;;;0.60;0.60;;;;;;;19.24;46.24;99307.69;5492685;26;20022;-66
2024/04/09 01:59:47;;;;;;;0.50;0.50;;;;;;;19.34;46.71;99325.31;5492886;26;20010;-66
2024/04/09 02:02:16;;;;;;;0.80;0.80;;;;;;;19.34;46.72;99319.28;5492407;26;20014;-67
2024/04/09 02:04:47;;;;;;;;;;;;;;;19.39;46.13;99313.06;5493059;26;20363;-67
2024/04/09 02:07:15;;;;;;;1.08;0.63;;;;;;;19.31;46.39;99298.75;5492643;26;20350;-66
2024/04/09 02:09:51;;;;;;;1.55;1.05;;;;;;;19.57;45.56;99311.44;5492350;26;20013;-66
2024/04/09 02:12:19;;;;;;;0.50;0.50;;;;;;;19.55;45.84;99310.69;5521406;26;20006;-66
2024/04/09 02:14:50;;;;;;;0.60;0.60;;;;;;;19.52;45.77;99304.78;5492478;26;19998;-67
2024/04/09 02:17:18;;;;;;;0.60;0.60;;;;;;;19.37;46.31;99303.69;5492605;26;19998;-66
2024/04/09 02:19:48;;;;;;;0.63;0.63;;;;;;;19.50;45.70;99310.03;5492711;26;20070;-66
2024/04/09 02:22:16;;;;;;;0.85;0.85;;;;;;;19.55;45.64;99313.25;5491462;26;20047;-67
2024/04/09 02:24:49;;;;;;;0.50;0.50;;;;;;;19.47;46.58;99314.47;5492134;26;20013;-66
2024/04/09 02:27:21;;;;;;;0.82;0.80;;;;;;;19.33;46.50;99320.22;5492538;26;20002;-66
2024/04/09 02:29:52;;;;;;;1.35;1.20;;;;;;;19.18;47.45;99313.09;5492325;26;19998;-67
2024/04/09 02:32:20;;;;;;;0.65;0.65;;;;;;;19.23;46.89;99301.66;5491947;26;19999;-66
2024/04/09 02:34:50;;;;;;;0.70;0.70;;;;;;;19.38;46.70;99300.19;5492342;26;20013;-66
2024/04/09 02:37:18;;;;;;;0.65;0.65;;;;;;;19.33;46.66;99296.94;5492084;26;20002;-66
2024/04/09 02:39:53;;;;;;;0.73;0.73;;;;;;;19.36;46.58;99291.66;5491978;26;20008;-66
2024/04/09 02:42:21;;;;;;;4.72;0.90;;;;;;;19.42;46.32;99291.38;5492080;26;20002;-66
2024/04/09 02:44:52;;;;;;;1.38;1.27;;;;;;;19.45;46.27;99290.41;5491850;26;20375;-66
2024/04/09 02:47:21;;;;;;;0.57;0.57;;;;;;;19.33;46.12;99266.72;5492148;26;20441;-67
2024/04/09 02:49:52;;;;;;;0.47;0.47;;;;;;;19.40;46.23;99280.25;5491784;26;20013;-66
2024/04/09 02:52:20;;;;;;;0.77;0.77;;;;;;;19.36;46.27;99256.25;5492111;26;20074;-66
2024/04/09 02:54:54;;;;;;;0.52;0.52;;;;;;;19.43;46.09;99267.19;5492154;26;19998;-66
2024/04/09 02:57:21;;;;;;;0.50;0.50;;;;;;;19.46;46.30;99282.56;5491837;26;20071;-67
2024/04/09 02:59:54;;;;;;;0.93;0.82;;;;;;;19.31;46.19;99267.69;5491699;26;20022;-66
2024/04/09 03:02:22;;;;;;;0.63;0.63;;;;;;;19.33;46.71;99278.81;5491908;26;20046;-66
2024/04/09 03:04:53;;;;;;;1.85;0.75;;;;;;;19.38;46.09;99284.66;5491764;26;20010;-66
2024/04/09 03:07:21;;;;;;;0.70;0.70;;;;;;;19.41;46.35;99289.72;5489615;26;20040;-66
2024/04/09 03:09:56;;;;;;;0.40;0.40;;;;;;;19.45;46.45;99278.31;5491517;26;20010;-66
2024/04/09 03:12:24;;;;;;;0.70;0.70;;;;;;;19.46;45.92;99289.53;5491510;26;20002;-66
2024/04/09 03:14:56;;;;;;;0.85;0.68;;;;;;;19.44;45.98;99292.16;5491555;26;20396;-66
2024/04/09 03:17:24;;;;;;;0.47;0.47;;;;;;;19.44;46.49;99286.13;5489639;26;20038;-66
2024/04/09 03:19:54;;;;;;;0.90;0.63;;;;;;;19.49;46.19;99282.44;5491627;26;20508;-66
2024/04/09 03:22:25;;;;;;;0.60;0.60;;;;;;;19.52;46.07;99287.50;5491854;26;20017;-67
2024/04/09 03:24:56;;;;;;;1.00;0.95;;;;;;;19.59;45.86;99285.47;5491474;26;20017;-65
2024/04/09 03:27:26;;;;;;;0.60;0.60;;;;;;;19.58;45.83;99273.47;5491392;26;20452;-65
2024/04/09 03:29:54;;;;;;;0.50;0.50;;;;;;;19.55;45.76;99271.00;5491333;26;20005;-66
2024/04/09 03:32:25;;;;;;;2.67;1.40;;;;;;;19.55;45.73;99269.25;5491185;26;19998;-66
2024/04/09 03:34:53;;;;;;;0.60;0.60;;;;;;;19.56;46.12;99273.50;5489679;26;20002;-66
2024/04/09 03:37:24;;;;;;;5.40;2.55;;;;;;;19.54;46.01;99272.75;5490857;26;20006;-66
2024/04/09 03:39:54;;;;;;;0.43;0.43;;;;;;;19.50;46.53;99268.59;5489266;26;20074;-66
2024/04/09 03:42:28;;;;;;;0.52;0.52;;;;;;;19.40;46.25;99246.63;5491003;26;20010;-66
2024/04/09 03:44:59;;;;;;;1.02;0.98;;;;;;;19.42;46.18;99260.31;5491185;26;20010;-66
2024/04/09 03:47:27;;;;;;;0.60;0.60;;;;;;;19.38;46.55;99269.97;5520129;26;20014;-66
2024/04/09 03:49:59;;;;;;;0.50;0.50;;;;;;;19.36;46.77;99265.78;5489236;26;20010;-67
2024/04/09 03:52:27;;;;;;;1.75;1.40;;;;;;;19.46;46.22;99272.22;5489649;26;20013;-66
2024/04/09 03:54:57;;;;;;;0.50;0.50;;;;;;;19.47;46.44;99267.88;5490796;26;19998;-66
2024/04/09 03:57:28;;;;;;;0.40;0.40;;;;;;;19.43;46.23;99272.38;5490867;26;20075;-67
2024/04/09 03:59:59;;;;;;;0.40;0.40;;;;;;;19.38;46.48;99276.91;5490896;26;20009;-67
2024/04/09 04:02:38;;;;;;;0.52;0.52;;;;;;;19.28;46.56;99262.63;5491101;26;20006;-66
2024/04/09 04:05:09;;;;;;;0.80;0.80;;;;;;;19.36;46.79;99270.97;5488853;26;20002;-66
2024/04/09 04:07:37;;;;;;;0.60;0.60;;;;;;;19.37;46.69;99267.44;5491174;26;20030;-67
2024/04/09 04:10:08;;;;;;;0.65;0.63;;;;;;;19.30;47.13;99263.41;5488840;26;20445;-67
2024/04/09 04:12:42;;;;;;;1.05;0.93;;;;;;;19.28;46.61;99263.47;5490620;26;20071;-67
2024/04/09 04:15:13;;;;;;;0.40;0.40;;;;;;;19.20;47.58;99259.53;5491065;26;19998;-67
2024/04/09 04:17:40;;;;;;;0.47;0.47;;;;;;;19.17;47.61;99259.69;5490618;26;20002;-66
2024/04/09 04:20:11;;;;;;;0.88;0.73;;;;;;;19.14;47.73;99254.63;5488643;26;20383;-67
2024/04/09 04:22:39;;;;;;;0.50;0.50;;;;;;;19.08;48.05;99252.28;5490772;26;20066;-66
2024/04/09 04:25:11;;;;;;;1.02;0.93;;;;;;;18.97;47.75;99238.97;5490241;26;20467;-66
2024/04/09 04:27:42;;;;;;;0.50;0.50;;;;;;;19.05;47.67;99255.00;5490453;26;20022;-66
2024/04/09 04:30:13;;;;;;;2.15;1.33;;;;;;;19.00;47.64;99259.53;5490522;26;20441;-66
2024/04/09 04:32:41;;;;;;;1.90;1.58;;;;;;;18.92;48.11;99262.44;5490352;26;20026;-66
2024/04/09 04:35:11;;;;;;;3.88;2.55;;;;;;;18.82;49.09;99273.19;5490043;26;20002;-67
2024/04/09 04:37:39;;;;;;;2.70;1.95;;;;;;;18.63;50.30;99273.09;5490555;26;19998;-65
2024/04/09 04:40:10;;;;;;;1.25;1.15;;;;;;;18.34;50.74;99263.88;5490015;26;20075;-66
2024/04/09 04:42:41;;;;;;;0.68;0.68;;;;;;;18.15;51.70;99275.81;5490236;26;20038;-66
2024/04/09 04:45:12;;;;;;;1.85;1.17;;;;;;;17.87;52.74;99272.59;5491100;26;20073;-66
2024/04/09 04:47:39;;;;;;;1.05;0.98;;;;;;;17.76;53.86;99272.97;5493777;26;19998;-67
2024/04/09 04:50:10;;;;;;;0.80;0.80;;;;;;;17.59;54.36;99264.16;5493213;26;20038;-67
2024/04/09 04:52:39;;;;;;;2.40;1.08;;;;;;;17.46;54.81;99268.03;5491750;26;20335;-66
2024/04/09 04:55:09;;;;;;;0.70;0.70;;;;;;;17.35;55.91;99261.50;5493400;26;20010;-66
2024/04/09 04:57:37;;;;;;;1.40;1.10;;;;;;;17.27;56.58;99273.00;5493460;26;20002;-66
2024/04/09 05:00:11;;;;;;;1.02;0.90;;;;;;;17.18;56.79;99274.13;5493584;26;20010;-67
2024/04/09 05:02:39;;;;;;;0.50;0.50;;;;;;;17.05;57.02;99254.81;5491380;26;20031;-67
2024/04/09 05:05:12;;;;;;;1.70;1.40;;;;;;;17.12;57.48;99274.34;5493590;26;20010;-66
2024/04/09 05:07:40;;;;;;;0.60;0.60;;;;;;;17.13;57.69;99270.88;5493666;26;20002;-66
2024/04/09 05:10:12;;;;;;;0.80;0.80;;;;;;;17.15;58.20;99278.56;5493026;26;20006;-66
2024/04/09 05:12:42;;;;;;;0.98;0.90;;;;;;;17.12;58.47;99269.19;5491510;26;20009;-66
2024/04/09 05:15:15;;;;;;;;;;;;;;;17.10;58.19;99265.00;5491835;26;19994;-66
2024/04/09 05:17:45;;;;;;;0.95;0.90;;;;;;;17.05;58.33;99261.72;5492971;26;19934;-66
2024/04/09 05:20:16;;;;;;;;;;;;;;;17.10;58.86;99268.41;5493487;26;20002;-66
2024/04/09 05:22:45;;;;;;;1.27;0.60;;;;;;;17.04;58.81;99266.03;5493080;26;19992;-66
2024/04/09 05:25:16;;;;;;;1.55;1.20;;;;;;;17.01;59.13;99255.81;5491911;26;20014;-66
2024/04/09 05:27:45;;;;;;;0.82;0.82;;;;;;;16.97;59.51;99256.81;5490608;26;20002;-67
2024/04/09 05:30:19;;;;;;;0.63;0.63;;;;;;;16.91;59.43;99244.13;5493020;26;20005;-66
2024/04/09 05:32:47;;;;;;;1.27;0.80;;;;;;;17.00;59.32;99256.72;5492898;26;20459;-67
2024/04/09 05:35:19;;;;;;;0.60;0.60;;;;;;;16.96;59.76;99257.72;5521818;26;20013;-66
2024/04/09 05:37:47;;;;;;;0.60;0.60;;;;;;;16.93;59.84;99268.13;5490906;26;20009;-67
2024/04/09 05:40:19;;;;;;;0.57;0.57;;;;;;;16.94;60.28;99254.31;5492814;26;19998;-67
2024/04/09 05:42:46;;;;;;;1.65;1.42;;;;;;;16.85;60.47;99236.59;5492639;26;20009;-67
2024/04/09 05:45:22;;;;;;;0.50;0.50;;;;;;;17.04;59.88;99255.72;5492420;26;20091;-67
2024/04/09 05:47:50;;;;;;;0.88;0.88;;;;;;;17.05;60.50;99260.00;5492922;26;20035;-67
2024/04/09 05:50:21;;;;;;;2.33;1.23;;;;;;;16.99;61.20;99256.78;5492313;26;20002;-67
2024/04/09 05:52:49;;;;;;;0.65;0.63;;;;;;;16.95;61.26;99258.59;5492906;26;20432;-67
2024/04/09 05:55:19;;;;;;;2.42;1.30;;;;;;;16.97;61.13;99267.13;5492487;26;20009;-66
2024/04/09 05:57:47;;;;;;;0.75;0.75;;;;;;;16.97;61.93;99263.69;5492059;26;20443;-67
2024/04/09 06:00:20;;;;;;;0.90;0.77;;;;;;;16.99;61.81;99262.75;5490397;26;20010;-66
2024/04/09 06:02:51;;;;;;;1.08;1.00;;;;;;;17.00;62.12;99254.13;5492217;26;20074;-66
2024/04/09 06:05:21;;;;;;;0.90;0.90;;;;;;;17.13;62.87;99249.41;5460328;26;20046;-66
2024/04/09 06:07:49;;;;;;;0.73;0.60;;;;;;;17.29;60.80;99246.25;5492812;26;20451;-66
2024/04/09 06:10:20;;;;;;;0.40;0.40;;;;;;;17.66;56.87;99232.06;5492217;26;20010;-66
2024/04/09 06:12:48;;;;;;;1.15;1.13;;;;;;;18.21;54.79;99236.81;5492267;26;20068;-66
2024/04/09 06:15:19;;;;;;;1.25;0.93;;;;;;;18.60;53.25;99232.72;5490508;26;20072;-67
2024/04/09 06:17:46;;;;;;;0.77;0.77;;;;;;;19.02;50.99;99239.59;5492441;26;20014;-67
2024/04/09 06:20:20;;;;;;;0.68;0.65;;;;;;;19.34;50.79;99241.66;5492068;26;19998;-67
2024/04/09 06:22:48;;;;;;;0.88;0.80;;;;;;;19.42;50.55;99229.25;5492017;26;19998;-67
2024/04/09 06:25:19;;;;;;;1.20;0.73;;;;;;;19.54;50.30;99233.91;5492103;26;20009;-67
2024/04/09 06:27:49;;;;;;;1.20;0.85;;;;;;;19.61;49.90;99235.31;5492037;26;19998;-66
2024/04/09 06:30:20;;;;;;;0.50;0.50;;;;;;;19.77;49.78;99236.28;5492138;26;20001;-67
2024/04/09 06:32:51;;;;;;;0.40;0.40;;;;;;;19.92;49.33;99240.78;5492269;26;19998;-67
2024/04/09 06:35:22;;;;;;;0.50;0.50;;;;;;;20.10;48.55;99244.31;5494258;26;20002;-68
2024/04/09 06:37:52;;;;;;;0.85;0.85;;;;;;;20.29;48.08;99241.72;5528881;25;20004;-68
2024/04/09 06:40:22;;;;;;;1.08;0.98;;;;;;;20.47;47.60;99238.22;5528944;25;20013;-67
2024/04/09 06:42:52;;;;;;;1.48;1.17;;;;;;;20.67;46.97;99243.31;5528790;25;20013;-67
2024/04/09 06:45:20;;;;;;;0.82;0.80;;;;;;;20.90;46.17;99248.19;5528789;26;20040;-67
2024/04/09 06:47:50;;;;;;;0.40;0.40;;;;;;;21.06;44.94;99243.97;5529092;25;19998;-67
2024/04/09 06:50:21;;;;;;;1.10;0.95;;;;;;;21.26;43.98;99243.78;5528521;26;20454;-66
2024/04/09 06:52:52;;;;;;;1.17;0.98;;;;;;;21.44;43.64;99241.16;5528700;25;20009;-67
2024/04/09 06:55:19;;;;;;;0.95;0.73;;;;;;;21.50;43.82;99233.06;5528644;26;20010;-66
2024/04/09 06:57:50;;;;;;;0.50;0.50;;;;;;;21.70;43.48;99235.44;5528435;26;20009;-66
2024/04/09 07:00:20;;;;;;;0.40;0.40;;;;;;;21.84;42.63;99232.94;5528347;26;20004;-68
2024/04/09 07:02:50;;;;;;;;;;;;;;;21.94;43.00;99228.97;5528499;26;20451;-66
2024/04/09 07:05:26;;;;;;;0.60;0.60;;;;;;;21.98;42.81;99210.53;5528494;25;20257;-65
2024/04/09 07:07:55;;;;;;;1.10;0.70;;;;;;;22.17;42.19;99236.34;5526755;26;20009;-69
2024/04/09 07:10:26;;;;;;;0.50;0.50;;;;;;;22.28;42.30;99234.00;5528169;26;20046;-67
2024/04/09 07:12:54;;;;;;;3.40;1.05;;;;;;;22.43;42.51;99232.31;5528500;25;20017;-67
2024/04/09 07:15:28;;;;;;;0.57;0.55;;;;;;;22.44;41.34;99231.38;5525796;26;19993;-67
2024/04/09 07:17:56;;;;;;;0.43;0.43;;;;;;;22.48;41.18;99225.09;5528640;25;19997;-66
2024/04/09 07:20:31;;;;;;;0.60;0.60;;;;;;;22.46;40.82;99217.34;5528035;25;20001;-67
2024/04/09 07:22:59;;;;;;;0.40;0.40;;;;;;;22.48;40.95;99215.50;5528309;25;20323;-67
2024/04/09 07:25:31;;;;;;;0.40;0.40;;;;;;;22.57;41.09;99219.38;5526621;26;20346;-66
2024/04/09 07:27:59;;;;;;;0.55;0.50;;;;;;;22.68;40.56;99217.84;5526374;26;20332;-65
2024/04/09 07:30:29;;;;;;;3.17;1.30;;;;;;;22.78;40.37;99217.31;5528369;26;19998;-66
2024/04/09 07:32:57;;;;;;;0.47;0.47;;;;;;;22.81;40.70;99223.19;5528218;25;20333;-66
2024/04/09 07:35:31;;;;;;;0.90;0.88;;;;;;;22.84;40.35;99217.81;5527823;26;20001;-67
2024/04/09 07:38:00;;;;;;;0.40;0.40;;;;;;;22.97;40.42;99215.31;5527949;25;20013;-67
2024/04/09 07:40:30;;;;;;;0.65;0.60;;;;;;;23.02;39.78;99215.91;5527755;25;20505;-66
2024/04/09 07:43:00;;;;;;;0.45;0.45;;;;;;;22.98;39.49;99215.25;5527743;26;20001;-67
2024/04/09 07:45:31;;;;;;;3.85;0.65;;;;;;;23.10;40.30;99208.47;5525927;26;20013;-68
2024/04/09 07:47:59;;;;;;;0.68;0.60;;;;;;;23.09;40.05;99201.59;5527774;25;19998;-67
2024/04/09 07:50:32;;;;;;;3.20;1.30;;;;;;;23.16;39.69;99208.09;5527626;26;20355;-67
2024/04/09 07:53:00;;;;;;;0.43;0.43;;;;;;;23.34;39.68;99214.81;5527893;25;20008;-67
2024/04/09 07:55:30;;;;;;;1.50;1.35;;;;;;;23.27;39.15;99195.28;5495237;26;20028;-67
2024/04/09 07:57:58;;;;;;;0.40;0.40;;;;;;;23.32;39.92;99208.88;5528016;26;19997;-66
2024/04/09 08:00:29;;;;;;;0.55;0.55;;;;;;;23.45;39.35;99209.84;5527759;25;20005;-67
2024/04/09 08:02:56;;;;;;;0.40;0.40;;;;;;;23.54;39.20;99209.25;5527604;25;20077;-68
2024/04/09 08:05:28;;;;;;;0.73;0.73;;;;;;;23.61;38.64;99225.38;5527397;25;19997;-68
2024/04/09 08:08:00;;;;;;;2.05;0.95;;;;;;;23.55;38.93;99223.97;5527526;25;20026;-68
2024/04/09 08:10:32;;;;;;;0.93;0.88;;;;;;;23.56;39.00;99202.22;5527600;25;20025;-66
2024/04/09 08:13:01;;;;;;;0.47;0.47;;;;;;;23.71;38.54;99216.88;5527630;25;20344;-68
2024/04/09 08:15:32;;;;;;;0.40;0.40;;;;;;;23.84;38.53;99196.13;5527703;26;20400;-67
2024/04/09 08:18:00;;;;;;;0.85;0.75;;;;;;;23.86;38.37;99202.91;5527657;26;20002;-67
2024/04/09 08:20:31;;;;;;;0.47;0.47;;;;;;;23.81;38.13;99211.94;5525891;26;20016;-67
2024/04/09 08:23:03;;;;;;;0.38;0.38;;;;;;;23.82;38.54;99213.63;5527436;25;20069;-67
2024/04/09 08:25:34;;;;;;;0.40;0.40;;;;;;;23.85;37.98;99203.84;5527256;25;20073;-68
2024/04/09 08:28:02;;;;;;;0.77;0.77;;;;;;;23.95;38.06;99209.31;5525086;26;20331;-68
2024/04/09 08:30:36;;;;;;;;;;;;;;;23.99;37.83;99195.97;5527891;26;20001;-70
2024/04/09 08:33:05;;;;;;;0.40;0.40;;;;;;;24.09;37.85;99192.84;5527376;25;20355;-67
2024/04/09 08:35:36;;;;;;;0.30;0.30;;;;;;;24.03;37.39;99191.41;5527015;26;19998;-66
2024/04/09 08:38:07;;;;;;;0.68;0.50;;;;;;;24.19;37.94;99202.56;5524991;26;20041;-67
2024/04/09 08:40:38;;;;;;;0.40;0.40;;;;;;;24.38;37.73;99205.69;5524326;26;20324;-68
2024/04/09 08:43:06;;;;;;;0.43;0.43;;;;;;;24.50;37.70;99193.59;5526996;26;20009;-66
2024/04/09 08:45:39;;;;;;;0.50;0.50;;;;;;;24.54;37.81;99189.88;5527325;25;20340;-66
2024/04/09 08:48:11;;;;;;;6.32;1.20;;;;;;;24.50;36.99;99185.78;5526801;25;19998;-68
2024/04/09 08:50:49;;;;;;;0.45;0.45;;;;;;;24.57;36.77;99197.50;5526887;25;20005;-67
2024/04/09 08:53:23;;;;;;;;;;;;;;;24.67;37.17;99193.34;5527523;25;20016;-66
2024/04/09 08:55:55;;;;;;;0.75;0.75;;;;;;;24.70;36.75;99194.91;5526727;26;19930;-66
2024/04/09 08:58:22;;;;;;;0.50;0.50;;;;;;;24.79;36.71;99194.31;5526688;26;19997;-67
2024/04/09 09:00:53;;;;;;;0.52;0.52;;;;;;;24.75;36.71;99180.63;5526629;25;20073;-67
2024/04/09 09:03:22;;;;;;;0.40;0.40;;;;;;;24.85;36.56;99173.88;5526352;25;20452;-66
2024/04/09 09:06:04;;;;;;;0.52;0.52;;;;;;;24.98;35.88;99179.94;5525056;26;20040;-66
2024/04/09 09:08:42;;;;;;;0.75;0.75;;;;;;;25.09;36.74;99185.28;5524549;26;20012;-66
2024/04/09 09:11:13;;;;;;;0.55;0.55;;;;;;;25.14;36.32;99172.75;5526850;26;19997;-66
2024/04/09 09:13:41;;;;;;;0.38;0.38;;;;;;;25.18;34.74;99169.00;5494219;26;20006;-66
2024/04/09 09:16:12;;;;;;;1.55;0.85;;;;;;;25.20;35.25;99172.31;5526256;25;20013;-67
2024/04/09 09:18:40;;;;;;;0.40;0.40;;;;;;;25.12;34.70;99169.38;5524450;26;20001;-66
2024/04/09 09:21:11;;;;;;;0.77;0.77;;;;;;;25.18;36.13;99179.44;5526176;25;19998;-66
2024/04/09 09:23:42;;;;;;;0.90;0.82;;;;;;;25.26;35.96;99166.69;5526482;25;20002;-66
2024/04/09 09:26:12;;;;;;;0.50;0.50;;;;;;;25.42;35.04;99165.63;5526520;26;20074;-65
2024/04/09 09:28:42;;;;;;;0.50;0.50;;;;;;;25.34;35.54;99162.72;5526636;25;20501;-66
2024/04/09 09:31:13;;;;;;;0.40;0.40;;;;;;;25.46;35.13;99172.34;5525712;26;20009;-65
2024/04/09 09:33:48;;;;;;;1.33;1.17;;;;;;;25.48;35.21;99167.84;5529096;26;20081;-67
2024/04/09 09:36:19;;;;;;;0.40;0.40;;;;;;;25.31;35.42;99175.03;5529551;26;20017;-67
2024/04/09 09:38:51;;;;;;;0.50;0.50;;;;;;;25.47;35.80;99159.16;5528430;26;20496;-66
2024/04/09 09:41:22;;;;;;;0.35;0.35;;;;;;;25.53;35.52;99157.91;5529808;25;20352;-67
2024/04/09 09:43:50;;;;;;;0.40;0.40;;;;;;;25.60;35.82;99159.16;5529682;26;19997;-66
2024/04/09 09:46:21;;;;;;;0.40;0.40;;;;;;;25.52;35.41;99158.84;5529556;26;20019;-67
2024/04/09 09:48:53;;;;;;;0.40;0.40;;;;;;;25.48;35.40;99173.91;5529580;26;20040;-67
2024/04/09 09:51:25;;;;;;;0.57;0.57;;;;;;;25.31;35.42;99154.13;5529856;25;19998;-66
2024/04/09 09:53:56;;;;;;;0.40;0.40;;;;;;;25.40;34.85;99157.06;5529218;26;20315;-64
2024/04/09 09:56:29;;;;;;;0.85;0.85;;;;;;;25.46;35.73;99165.31;5527481;26;20344;-66
2024/04/09 09:58:59;;;;;;;0.60;0.60;;;;;;;25.46;35.97;99151.44;5529111;25;20002;-67
2024/04/09 10:01:30;;;;;;;0.55;0.45;;;;;;;25.48;34.93;99155.63;5527643;26;20005;-67
2024/04/09 10:03:58;;;;;;;0.63;0.63;;;;;;;25.60;35.81;99144.28;5529501;25;20332;-66
2024/04/09 10:06:30;;;;;;;1.15;0.85;;;;;;;25.51;35.34;99147.53;5529482;25;20012;-66
2024/04/09 10:09:05;;;;;;;0.50;0.50;;;;;;;25.44;34.52;99148.91;5527341;26;20007;-67
2024/04/09 10:11:45;;;;;;;0.40;0.40;;;;;;;25.46;35.40;99135.75;5527061;26;20001;-66
2024/04/09 10:14:22;;;;;;;0.50;0.50;;;;;;;25.85;36.02;99148.59;5527359;26;19997;-66
2024/04/09 10:16:53;;;;;;;0.50;0.50;;;;;;;25.65;34.38;99164.88;5529564;26;19997;-68
2024/04/09 10:19:21;;;;;;;0.40;0.40;;;;;;;25.44;35.68;99145.44;5527580;26;20010;-69
2024/04/09 10:21:53;;;;;;;0.40;0.40;;;;;;;25.57;35.88;99143.66;5528830;25;20005;-67
2024/04/09 10:24:27;;;;;;;1.20;0.98;;;;;;;25.81;35.18;99147.16;5496943;26;20067;-67
2024/04/09 10:26:59;;;;;;;0.50;0.50;;;;;;;25.89;35.21;99142.22;5529078;26;20037;-66
2024/04/09 10:29:29;;;;;;;0.50;0.50;;;;;;;25.84;35.25;99133.88;5528829;26;20001;-67
2024/04/09 10:32:00;;;;;;;1.10;0.93;;;;;;;25.97;35.22;99139.88;5529167;25;20042;-66
2024/04/09 10:34:28;;;;;;;0.55;0.55;;;;;;;25.96;35.82;99133.00;5527391;26;19997;-67
2024/04/09 10:37:03;;;;;;;0.40;0.40;;;;;;;26.07;35.31;99133.03;5528585;25;20016;-66
2024/04/09 10:39:36;;;;;;;0.40;0.40;;;;;;;26.25;35.56;99126.47;5529177;25;19998;-68
2024/04/09 10:42:07;;;;;;;0.73;0.55;;;;;;;26.01;35.26;99133.47;5528804;26;20052;-67
2024/04/09 10:44:35;;;;;;;0.50;0.50;;;;;;;25.74;35.18;99096.25;5528395;26;19997;-68
2024/04/09 10:47:09;;;;;;;1.00;0.55;;;;;;;25.79;34.70;99117.69;5526998;26;20009;-66
2024/04/09 10:49:38;;;;;;;0.40;0.40;;;;;;;25.96;36.17;99114.69;5528637;25;20002;-68
2024/04/09 10:52:09;;;;;;;0.50;0.50;;;;;;;25.84;35.10;99123.41;5528708;26;20320;-64
2024/04/09 10:54:39;;;;;;;0.35;0.35;;;;;;;25.94;34.02;99111.31;5528721;26;20004;-66
2024/04/09 10:57:10;;;;;;;0.68;0.68;;;;;;;25.95;34.24;99113.84;5529248;26;20001;-65
2024/04/09 10:59:38;;;;;;;0.40;0.40;;;;;;;25.94;34.73;99127.00;5528796;26;20010;-67
2024/04/09 11:02:13;;;;;;;0.60;0.60;;;;;;;25.99;34.87;99126.72;5528405;25;20006;-66
2024/04/09 11:04:42;;;;;;;0.50;0.50;;;;;;;26.13;34.67;99127.38;5528733;26;20013;-66
2024/04/09 11:07:13;;;;;;;1.37;1.27;;;;;;;26.23;34.64;99117.91;5528734;25;20006;-66
2024/04/09 11:09:44;;;;;;;0.40;0.40;;;;;;;26.30;34.09;99098.19;5528609;26;20001;-65
2024/04/09 11:12:15;;;;;;;3.20;1.75;;;;;;;26.31;33.21;99106.88;5526832;26;20073;-65
2024/04/09 11:14:43;;;;;;;0.35;0.35;;;;;;;26.11;33.78;99113.56;5528472;25;20468;-66
2024/04/09 11:17:19;;;;;;;0.50;0.50;;;;;;;26.00;34.72;99125.75;5528572;25;20443;-67
2024/04/09 11:19:47;;;;;;;0.40;0.40;;;;;;;25.77;35.46;99123.00;5528421;26;19997;-67
2024/04/09 11:22:20;;;;;;;0.63;0.63;;;;;;;25.48;35.02;99123.41;5528639;25;19997;-67
2024/04/09 11:24:50;;;;;;;0.40;0.35;;;;;;;25.38;35.99;99120.59;5528625;26;20013;-67
2024/04/09 11:27:21;;;;;;;0.50;0.50;;;;;;;25.19;35.70;99123.63;5528297;25;20440;-66
2024/04/09 11:29:49;;;;;;;0.40;0.40;;;;;;;25.10;37.65;99128.63;5528107;26;20459;-66
2024/04/09 11:32:20;;;;;;;0.55;0.55;;;;;;;25.14;37.74;99128.34;5528035;26;20361;-66
2024/04/09 11:34:48;;;;;;;0.50;0.50;;;;;;;25.18;37.30;99121.97;5528052;25;19998;-65
2024/04/09 11:37:21;;;;;;;0.50;0.50;;;;;;;25.14;37.41;99114.44;5527984;26;19998;-66
2024/04/09 11:39:52;;;;;;;1.17;0.82;;;;;;;25.12;37.78;99101.47;5503597;25;20002;-67
2024/04/09 11:42:22;;;;;;;0.50;0.50;;;;;;;25.16;37.45;99108.19;5489476;26;20079;-67
2024/04/09 11:44:59;;;;;;;0.82;0.70;;;;;;;25.15;37.67;99116.94;5491082;26;20003;-67
2024/04/09 11:47:29;;;;;;;1.70;0.95;;;;;;;25.26;37.50;99103.16;5489397;26;19998;-67
2024/04/09 11:49:57;;;;;;;2.33;0.80;;;;;;;25.21;37.23;99111.31;5490909;26;20013;-69